createdAt,value
2018-11-14T00:00:07.777Z,4.72
2018-11-14T00:01:07.768Z,4.77
2018-11-14T00:02:07.732Z,4.70
2018-11-14T00:03:07.712Z,4.76
2018-11-14T00:04:07.689Z,4.91
2018-11-14T00:05:07.661Z,4.91
2018-11-14T00:06:07.642Z,4.83
2018-11-14T00:07:07.615Z,4.75
2018-11-14T00:08:07.587Z,4.64
2018-11-14T00:09:07.571Z,4.70
2018-11-14T00:10:07.573Z,4.67
2018-11-14T00:11:07.518Z,4.67
2018-11-14T00:12:07.493Z,4.59
2018-11-14T00:13:07.477Z,4.64
2018-11-14T00:14:07.452Z,4.61
2018-11-14T00:15:07.423Z,4.67
2018-11-14T00:16:07.407Z,4.70
2018-11-14T00:17:07.388Z,4.67
2018-11-14T00:18:07.358Z,4.72
2018-11-14T00:19:07.324Z,4.65
2018-11-14T00:20:07.307Z,4.65
2018-11-14T00:21:07.291Z,4.43
2018-11-14T00:22:07.262Z,4.44
2018-11-14T00:23:07.233Z,4.55
2018-11-14T00:24:07.211Z,4.50
2018-11-14T00:25:07.185Z,4.42
2018-11-14T00:26:07.166Z,4.40
2018-11-14T00:27:07.144Z,4.44
2018-11-14T00:28:07.114Z,4.44
2018-11-14T00:29:07.092Z,4.46
2018-11-14T00:30:07.073Z,4.44
2018-11-14T00:31:07.051Z,4.55
2018-11-14T00:32:07.027Z,4.55
2018-11-14T00:33:07.068Z,4.54
2018-11-14T00:34:06.974Z,4.54
2018-11-14T00:35:06.955Z,4.55
2018-11-14T00:36:06.932Z,4.51
2018-11-14T00:37:06.913Z,4.50
2018-11-14T00:38:06.881Z,4.54
2018-11-14T00:39:06.852Z,4.40
2018-11-14T00:40:06.836Z,4.36
2018-11-14T00:41:06.810Z,4.28
2018-11-14T00:42:06.788Z,4.25
2018-11-14T00:43:06.762Z,4.16
2018-11-14T00:44:06.741Z,4.12
2018-11-14T00:45:06.713Z,3.96
2018-11-14T00:46:06.698Z,4.01
2018-11-14T00:47:06.665Z,4.15
2018-11-14T00:48:06.639Z,4.33
2018-11-14T00:49:06.617Z,4.50
2018-11-14T00:50:06.592Z,4.47
2018-11-14T00:51:06.565Z,4.54
2018-11-14T00:52:06.549Z,4.59
2018-11-14T00:53:06.524Z,4.47
2018-11-14T00:54:06.496Z,4.39
2018-11-14T00:55:06.471Z,4.36
2018-11-14T00:56:06.452Z,4.33
2018-11-14T00:57:06.426Z,4.39
2018-11-14T00:58:06.400Z,4.26
2018-11-14T00:59:06.378Z,4.21
2018-11-14T01:00:06.863Z,4.19
2018-11-14T01:01:06.330Z,4.19
2018-11-14T01:02:06.311Z,4.18
2018-11-14T01:03:06.288Z,4.28
2018-11-14T01:04:06.257Z,4.28
2018-11-14T01:05:06.235Z,4.26
2018-11-14T01:06:06.212Z,4.19
2018-11-14T01:07:06.187Z,4.15
2018-11-14T01:08:06.167Z,4.00
2018-11-14T01:09:06.199Z,4.00
2018-11-14T01:10:06.123Z,4.01
2018-11-14T01:11:06.097Z,4.18
2018-11-14T01:12:06.071Z,4.07
2018-11-14T01:13:06.103Z,4.14
2018-11-14T01:14:06.036Z,4.24
2018-11-14T01:15:06.001Z,4.15
2018-11-14T01:16:05.972Z,4.16
2018-11-14T01:17:05.957Z,4.04
2018-11-14T01:18:06.263Z,3.98
2018-11-14T01:19:05.900Z,3.98
2018-11-14T01:20:05.881Z,3.97
2018-11-14T01:21:05.852Z,4.03
2018-11-14T01:22:05.826Z,3.92
2018-11-14T01:23:05.807Z,3.86
2018-11-14T01:24:05.779Z,3.67
2018-11-14T01:25:05.762Z,3.68
2018-11-14T01:26:05.741Z,3.68
2018-11-14T01:27:05.733Z,3.68
2018-11-14T01:28:05.696Z,3.72
2018-11-14T01:29:05.667Z,3.85
2018-11-14T01:30:05.641Z,3.78
2018-11-14T01:31:05.616Z,3.76
2018-11-14T01:32:05.587Z,3.70
2018-11-14T01:33:05.571Z,3.78
2018-11-14T01:34:05.622Z,3.80
2018-11-14T01:35:05.515Z,3.86
2018-11-14T01:36:05.499Z,3.72
2018-11-14T01:37:05.474Z,3.72
2018-11-14T01:38:05.448Z,3.80
2018-11-14T01:39:05.420Z,3.83
2018-11-14T01:40:05.394Z,3.97
2018-11-14T01:41:05.408Z,4.00
2018-11-14T01:42:05.352Z,4.04
2018-11-14T01:43:05.330Z,4.00
2018-11-14T01:44:05.306Z,3.98
2018-11-14T01:45:05.277Z,4.06
2018-11-14T01:46:05.258Z,3.98
2018-11-14T01:47:05.229Z,3.94
2018-11-14T01:48:05.204Z,3.97
2018-11-14T01:49:05.178Z,4.04
2018-11-14T01:50:05.155Z,4.00
2018-11-14T01:51:05.130Z,4.04
2018-11-14T01:52:05.106Z,4.04
2018-11-14T01:53:05.093Z,4.01
2018-11-14T01:54:05.062Z,3.92
2018-11-14T01:55:05.040Z,3.94
2018-11-14T01:56:05.011Z,4.00
2018-11-14T01:57:04.988Z,4.01
2018-11-14T01:58:04.966Z,4.01
2018-11-14T01:59:04.940Z,3.98
2018-11-14T02:00:04.917Z,3.92
2018-11-14T02:01:04.892Z,3.94
2018-11-14T02:02:04.866Z,3.85
2018-11-14T02:03:04.844Z,3.70
2018-11-14T02:04:04.821Z,3.72
2018-11-14T02:05:04.802Z,3.76
2018-11-14T02:06:04.770Z,3.76
2018-11-14T02:07:04.747Z,3.75
2018-11-14T02:08:04.728Z,3.67
2018-11-14T02:09:04.700Z,3.76
2018-11-14T02:10:04.675Z,3.79
2018-11-14T02:11:04.654Z,3.72
2018-11-14T02:12:04.635Z,3.67
2018-11-14T02:13:04.603Z,3.71
2018-11-14T02:14:04.578Z,3.62
2018-11-14T02:15:04.555Z,3.68
2018-11-14T02:16:04.530Z,3.47
2018-11-14T02:17:04.509Z,3.44
2018-11-14T02:18:04.488Z,3.39
2018-11-14T02:19:04.456Z,3.36
2018-11-14T02:20:04.433Z,3.43
2018-11-14T02:21:04.411Z,3.47
2018-11-14T02:22:04.386Z,3.57
2018-11-14T02:23:04.363Z,3.71
2018-11-14T02:24:04.337Z,3.78
2018-11-14T02:25:04.314Z,3.88
2018-11-14T02:26:04.288Z,3.80
2018-11-14T02:27:04.265Z,3.86
2018-11-14T02:28:04.239Z,3.94
2018-11-14T02:29:04.220Z,3.88
2018-11-14T02:30:04.198Z,3.85
2018-11-14T02:31:04.171Z,3.65
2018-11-14T02:32:04.154Z,3.52
2018-11-14T02:33:04.129Z,3.57
2018-11-14T02:34:12.733Z,3.60
2018-11-14T02:35:57.445Z,3.36
2018-11-14T02:36:57.407Z,3.28
2018-11-14T02:37:57.381Z,3.34
2018-11-14T02:38:57.359Z,3.34
2018-11-14T02:39:57.333Z,3.43
2018-11-14T02:40:57.317Z,3.64
2018-11-14T02:41:57.291Z,3.64
2018-11-14T02:42:57.269Z,3.71
2018-11-14T02:43:57.239Z,3.76
2018-11-14T02:44:57.218Z,3.75
2018-11-14T02:45:57.192Z,3.65
2018-11-14T02:46:57.166Z,3.71
2018-11-14T02:47:57.144Z,3.61
2018-11-14T02:48:57.125Z,3.47
2018-11-14T02:49:57.098Z,3.44
2018-11-14T02:50:57.069Z,3.34
2018-11-14T02:51:57.043Z,3.40
2018-11-14T02:52:57.021Z,3.30
2018-11-14T02:53:57.008Z,3.25
2018-11-14T02:54:56.979Z,3.25
2018-11-14T02:55:56.953Z,3.23
2018-11-14T02:56:56.922Z,3.21
2018-11-14T02:57:56.900Z,3.23
2018-11-14T02:58:56.881Z,3.28
2018-11-14T02:59:56.848Z,3.27
2018-11-14T03:00:56.833Z,3.23
2018-11-14T03:01:56.801Z,3.24
2018-11-14T03:02:56.784Z,3.34
2018-11-14T03:03:56.756Z,3.43
2018-11-14T03:04:56.744Z,3.44
2018-11-14T03:05:56.712Z,3.46
2018-11-14T03:06:56.686Z,3.44
2018-11-14T03:07:56.664Z,3.34
2018-11-14T03:08:56.632Z,3.33
2018-11-14T03:09:56.618Z,3.28
2018-11-14T03:10:56.584Z,3.27
2018-11-14T03:11:56.561Z,3.43
2018-11-14T03:12:57.308Z,3.47
2018-11-14T03:13:58.584Z,3.57
2018-11-14T03:14:56.495Z,3.57
2018-11-14T03:15:56.472Z,3.57
2018-11-14T03:16:56.446Z,3.57
2018-11-14T03:17:56.421Z,3.43
2018-11-14T03:18:56.452Z,3.52
2018-11-14T03:19:56.380Z,3.36
2018-11-14T03:20:56.361Z,3.34
2018-11-14T03:21:56.344Z,3.46
2018-11-14T03:22:56.294Z,3.61
2018-11-14T03:23:56.269Z,3.60
2018-11-14T03:24:56.246Z,3.61
2018-11-14T03:25:56.224Z,3.67
2018-11-14T03:26:56.204Z,3.79
2018-11-14T03:27:56.176Z,3.65
2018-11-14T03:28:56.147Z,3.43
2018-11-14T03:29:56.125Z,3.39
2018-11-14T03:30:56.099Z,3.28
2018-11-14T03:31:56.080Z,3.27
2018-11-14T03:32:56.058Z,3.23
2018-11-14T03:33:56.030Z,3.25
2018-11-14T03:34:56.004Z,3.28
2018-11-14T03:35:55.978Z,3.23
2018-11-14T03:36:55.956Z,3.24
2018-11-14T03:37:55.934Z,3.09
2018-11-14T03:38:55.933Z,2.95
2018-11-14T03:39:55.881Z,2.97
2018-11-14T03:40:55.865Z,3.05
2018-11-14T03:41:55.843Z,3.02
2018-11-14T03:42:55.820Z,3.07
2018-11-14T03:43:55.792Z,3.10
2018-11-14T03:44:55.760Z,3.23
2018-11-14T03:45:55.744Z,3.40
2018-11-14T03:46:55.713Z,3.25
2018-11-14T03:47:55.697Z,3.21
2018-11-14T03:48:55.667Z,3.13
2018-11-14T03:49:55.639Z,3.05
2018-11-14T03:50:55.616Z,3.07
2018-11-14T03:51:55.594Z,3.06
2018-11-14T03:52:55.578Z,3.23
2018-11-14T03:53:55.543Z,3.27
2018-11-14T03:54:55.520Z,3.42
2018-11-14T03:55:55.506Z,3.44
2018-11-14T03:56:55.475Z,3.43
2018-11-14T03:57:55.450Z,3.57
2018-11-14T03:58:55.424Z,3.57
2018-11-14T03:59:55.399Z,3.54
2018-11-14T04:00:55.373Z,3.53
2018-11-14T04:01:55.354Z,3.44
2018-11-14T04:02:55.325Z,3.47
2018-11-14T04:03:55.302Z,3.31
2018-11-14T04:04:55.282Z,3.21
2018-11-14T04:05:55.250Z,3.10
2018-11-14T04:06:55.234Z,3.12
2018-11-14T04:07:55.203Z,3.09
2018-11-14T04:08:55.180Z,2.92
2018-11-14T04:09:55.154Z,2.91
2018-11-14T04:10:55.138Z,2.89
2018-11-14T04:11:55.106Z,2.82
2018-11-14T04:12:55.087Z,2.87
2018-11-14T04:13:55.058Z,2.87
2018-11-14T04:14:55.036Z,2.97
2018-11-14T04:15:55.007Z,3.06
2018-11-14T04:16:54.984Z,3.09
2018-11-14T04:17:54.956Z,3.07
2018-11-14T04:18:54.937Z,3.24
2018-11-14T04:19:54.911Z,3.39
2018-11-14T04:20:54.891Z,3.44
2018-11-14T04:21:54.870Z,3.40
2018-11-14T04:22:54.847Z,3.39
2018-11-14T04:23:54.817Z,3.36
2018-11-14T04:24:54.796Z,3.40
2018-11-14T04:25:54.769Z,3.36
2018-11-14T04:26:54.744Z,3.46
2018-11-14T04:27:54.717Z,3.52
2018-11-14T04:28:54.698Z,3.61
2018-11-14T04:29:54.670Z,3.57
2018-11-14T04:30:54.650Z,3.58
2018-11-14T04:31:54.620Z,3.60
2018-11-14T04:32:54.600Z,3.46
2018-11-14T04:33:54.576Z,3.44
2018-11-14T04:34:54.545Z,3.36
2018-11-14T04:35:54.525Z,3.24
2018-11-14T04:36:54.503Z,3.27
2018-11-14T04:37:54.475Z,3.10
2018-11-14T04:38:54.449Z,3.09
2018-11-14T04:39:54.423Z,2.98
2018-11-14T04:40:54.401Z,3.06
2018-11-14T04:41:54.375Z,3.10
2018-11-14T04:42:54.352Z,3.12
2018-11-14T04:43:54.334Z,3.09
2018-11-14T04:44:54.306Z,3.06
2018-11-14T04:45:54.995Z,3.05
2018-11-14T04:46:54.258Z,2.84
2018-11-14T04:47:54.239Z,2.77
2018-11-14T04:48:54.238Z,2.82
2018-11-14T04:49:54.184Z,2.95
2018-11-14T04:50:54.158Z,3.02
2018-11-14T04:51:54.133Z,3.09
2018-11-14T04:52:54.113Z,3.25
2018-11-14T04:53:54.085Z,3.18
2018-11-14T04:54:54.063Z,3.09
2018-11-14T04:55:54.039Z,3.13
2018-11-14T04:56:54.011Z,3.13
2018-11-14T04:57:53.989Z,3.12
2018-11-14T04:58:53.963Z,2.95
2018-11-14T04:59:53.937Z,2.94
2018-11-14T05:00:53.915Z,2.92
2018-11-14T05:01:53.888Z,2.82
2018-11-14T05:02:53.866Z,2.77
2018-11-14T05:03:53.840Z,2.73
2018-11-14T05:04:53.814Z,2.64
2018-11-14T05:05:53.788Z,2.61
2018-11-14T05:06:53.772Z,2.70
2018-11-14T05:07:53.751Z,2.76
2018-11-14T05:08:53.719Z,2.71
2018-11-14T05:09:53.703Z,2.76
2018-11-14T05:10:53.678Z,2.61
2018-11-14T05:11:53.645Z,2.58
2018-11-14T05:12:53.630Z,2.59
2018-11-14T05:13:53.599Z,2.63
2018-11-14T05:14:53.572Z,2.77
2018-11-14T05:15:53.552Z,2.79
2018-11-14T05:16:53.521Z,2.84
2018-11-14T05:17:53.497Z,2.84
2018-11-14T05:18:53.475Z,2.74
2018-11-14T05:19:53.449Z,2.58
2018-11-14T05:20:53.437Z,2.56
2018-11-14T05:21:53.404Z,2.41
2018-11-14T05:22:53.393Z,2.38
2018-11-14T05:23:53.363Z,2.19
2018-11-14T05:24:53.328Z,2.16
2018-11-14T05:25:53.313Z,2.26
2018-11-14T05:26:53.278Z,2.23
2018-11-14T05:27:53.255Z,2.15
2018-11-14T05:28:53.236Z,2.27
2018-11-14T05:29:53.207Z,2.41
2018-11-14T05:30:53.189Z,2.40
2018-11-14T05:31:53.197Z,2.56
2018-11-14T05:32:53.134Z,2.58
2018-11-14T05:33:53.120Z,2.58
2018-11-14T05:34:53.087Z,2.64
2018-11-14T05:35:53.059Z,2.63
2018-11-14T05:36:53.035Z,2.70
2018-11-14T05:37:53.012Z,2.81
2018-11-14T05:38:52.999Z,2.67
2018-11-14T05:39:53.054Z,2.69
2018-11-14T05:40:52.942Z,2.66
2018-11-14T05:41:52.912Z,2.81
2018-11-14T05:42:52.895Z,2.84
2018-11-14T05:43:52.864Z,2.74
2018-11-14T05:44:52.838Z,2.82
2018-11-14T05:45:52.816Z,2.92
2018-11-14T05:46:52.801Z,2.87
2018-11-14T05:47:52.767Z,2.88
2018-11-14T05:48:52.742Z,2.91
2018-11-14T05:49:52.746Z,2.84
2018-11-14T05:50:52.694Z,2.85
2018-11-14T05:51:52.674Z,2.77
2018-11-14T05:52:52.651Z,2.63
2018-11-14T05:53:52.621Z,2.64
2018-11-14T05:54:52.640Z,2.52
2018-11-14T05:55:52.567Z,2.46
2018-11-14T05:56:52.550Z,2.53
2018-11-14T05:57:52.528Z,2.61
2018-11-14T05:58:52.499Z,2.63
2018-11-14T05:59:52.469Z,2.67
2018-11-14T06:00:52.447Z,2.61
2018-11-14T06:01:52.425Z,2.63
2018-11-14T06:02:52.406Z,2.51
2018-11-14T06:03:52.377Z,2.48
2018-11-14T06:04:52.352Z,2.35
2018-11-14T06:05:52.333Z,2.27
2018-11-14T06:06:52.995Z,2.33
2018-11-14T06:07:52.274Z,2.26
2018-11-14T06:08:52.251Z,2.23
2018-11-14T06:09:52.232Z,2.37
2018-11-14T06:10:52.208Z,2.35
2018-11-14T06:11:52.184Z,2.40
2018-11-14T06:12:52.158Z,2.40
2018-11-14T06:13:52.136Z,2.37
2018-11-14T06:14:52.114Z,2.37
2018-11-14T06:15:52.079Z,2.33
2018-11-14T06:16:52.057Z,2.26
2018-11-14T06:17:52.041Z,2.13
2018-11-14T06:18:52.012Z,2.19
2018-11-14T06:19:51.985Z,2.22
2018-11-14T06:20:51.961Z,2.16
2018-11-14T06:21:51.984Z,2.20
2018-11-14T06:22:51.922Z,2.16
2018-11-14T06:23:51.890Z,2.20
2018-11-14T06:24:51.865Z,2.28
2018-11-14T06:25:51.833Z,2.27
2018-11-14T06:26:51.812Z,2.23
2018-11-14T06:27:51.794Z,2.20
2018-11-14T06:28:51.765Z,2.17
2018-11-14T06:29:51.785Z,2.19
2018-11-14T06:30:51.711Z,2.12
2018-11-14T06:31:51.686Z,2.04
2018-11-14T06:32:51.670Z,2.06
2018-11-14T06:33:51.644Z,2.08
2018-11-14T06:34:51.614Z,2.22
2018-11-14T06:35:51.597Z,2.26
2018-11-14T06:36:51.567Z,2.37
2018-11-14T06:37:51.573Z,2.37
2018-11-14T06:38:51.526Z,2.40
2018-11-14T06:39:51.495Z,2.35
2018-11-14T06:40:51.470Z,2.35
2018-11-14T06:41:51.448Z,2.35
2018-11-14T06:42:51.418Z,2.31
2018-11-14T06:43:51.393Z,2.35
2018-11-14T06:44:51.373Z,2.33
2018-11-14T06:45:51.354Z,2.34
2018-11-14T06:46:51.317Z,2.28
2018-11-14T06:47:51.298Z,2.31
2018-11-14T06:48:51.269Z,2.45
2018-11-14T06:49:51.256Z,2.35
2018-11-14T06:50:51.224Z,2.35
2018-11-14T06:51:51.199Z,2.31
2018-11-14T06:52:51.180Z,2.22
2018-11-14T06:53:51.150Z,2.16
2018-11-14T06:54:51.120Z,2.08
2018-11-14T06:55:51.102Z,2.10
2018-11-14T06:56:51.072Z,2.10
2018-11-14T06:57:51.047Z,2.09
2018-11-14T06:58:51.102Z,2.22
2018-11-14T06:59:51.101Z,2.27
2018-11-14T07:00:50.976Z,2.38
2018-11-14T07:01:50.961Z,2.52
2018-11-14T07:02:50.926Z,2.52
2018-11-14T07:03:50.911Z,2.61
2018-11-14T07:04:50.951Z,2.66
2018-11-14T07:05:50.941Z,2.70
2018-11-14T07:06:50.828Z,2.79
2018-11-14T07:07:50.810Z,2.85
2018-11-14T07:08:50.780Z,2.89
2018-11-14T07:09:50.757Z,2.97
2018-11-14T07:10:50.791Z,2.94
2018-11-14T07:11:50.705Z,3.06
2018-11-14T07:12:50.682Z,2.98
2018-11-14T07:13:50.656Z,2.85
2018-11-14T07:14:50.641Z,2.73
2018-11-14T07:15:50.606Z,2.74
2018-11-14T07:16:50.587Z,2.76
2018-11-14T07:17:50.597Z,2.66
2018-11-14T07:18:50.535Z,2.61
2018-11-14T07:19:50.513Z,2.70
2018-11-14T07:20:50.492Z,2.67
2018-11-14T07:21:50.471Z,2.66
2018-11-14T07:22:50.439Z,2.70
2018-11-14T07:23:50.524Z,2.66
2018-11-14T07:24:50.388Z,2.64
2018-11-14T07:25:50.372Z,2.70
2018-11-14T07:26:50.339Z,2.63
2018-11-14T07:27:50.314Z,2.74
2018-11-14T07:28:50.294Z,2.84
2018-11-14T07:29:50.266Z,2.84
2018-11-14T07:30:50.244Z,2.85
2018-11-14T07:31:50.225Z,2.87
2018-11-14T07:32:50.193Z,2.85
2018-11-14T07:33:50.167Z,2.85
2018-11-14T07:34:50.144Z,2.84
2018-11-14T07:35:50.119Z,2.79
2018-11-14T07:36:50.102Z,2.81
2018-11-14T07:37:50.169Z,2.84
2018-11-14T07:38:50.049Z,2.84
2018-11-14T07:39:50.019Z,2.85
2018-11-14T07:40:49.997Z,2.89
2018-11-14T07:41:49.972Z,2.94
2018-11-14T07:42:49.948Z,3.28
2018-11-14T07:43:49.994Z,3.62
2018-11-14T07:44:49.906Z,3.82
2018-11-14T07:45:49.887Z,4.08
2018-11-14T07:46:49.852Z,4.26
2018-11-14T07:47:49.828Z,4.51
2018-11-14T07:48:49.874Z,4.89
2018-11-14T07:49:49.783Z,5.66
2018-11-14T07:50:49.755Z,6.43
2018-11-14T07:51:49.736Z,7.24
2018-11-14T07:52:49.705Z,7.77
2018-11-14T07:53:49.764Z,8.15
2018-11-14T07:54:49.738Z,8.44
2018-11-14T07:55:50.517Z,8.69
2018-11-14T07:56:49.625Z,9.09
2018-11-14T07:57:49.590Z,9.46
2018-11-14T07:58:49.567Z,9.60
2018-11-14T07:59:49.535Z,9.94
2018-11-14T08:00:49.514Z,10.18
2018-11-14T08:01:49.500Z,10.36
2018-11-14T08:02:49.475Z,10.63
2018-11-14T08:03:49.443Z,10.68
2018-11-14T08:04:49.427Z,10.78
2018-11-14T08:05:49.398Z,11.06
2018-11-14T08:06:49.379Z,11.21
2018-11-14T08:07:49.421Z,11.25
2018-11-14T08:08:49.335Z,11.36
2018-11-14T08:09:49.312Z,11.47
2018-11-14T08:10:49.281Z,11.70
2018-11-14T08:11:49.258Z,11.68
2018-11-14T08:12:49.242Z,11.85
2018-11-14T08:13:49.214Z,11.80
2018-11-14T08:14:49.190Z,12.05
2018-11-14T08:15:49.175Z,12.16
2018-11-14T08:16:49.146Z,12.30
2018-11-14T08:17:49.127Z,12.26
2018-11-14T08:18:49.180Z,12.46
2018-11-14T08:19:49.075Z,12.64
2018-11-14T08:20:49.058Z,12.77
2018-11-14T08:21:49.032Z,12.84
2018-11-14T08:22:49.010Z,12.75
2018-11-14T08:23:48.994Z,13.00
2018-11-14T08:24:49.021Z,12.96
2018-11-14T08:25:48.949Z,12.85
2018-11-14T08:26:48.923Z,12.92
2018-11-14T08:27:48.902Z,13.09
2018-11-14T08:28:48.885Z,13.30
2018-11-14T08:29:48.867Z,13.58
2018-11-14T08:30:49.523Z,13.54
2018-11-14T08:31:48.825Z,13.36
2018-11-14T08:32:48.799Z,13.04
2018-11-14T08:33:48.778Z,13.21
2018-11-14T08:34:48.756Z,13.18
2018-11-14T08:35:48.727Z,13.22
2018-11-14T08:36:48.709Z,13.36
2018-11-14T08:37:48.700Z,12.88
2018-11-14T08:38:48.673Z,12.63
2018-11-14T08:39:48.653Z,12.64
2018-11-14T08:40:48.635Z,12.48
2018-11-14T08:41:48.604Z,12.33
2018-11-14T08:42:48.591Z,11.96
2018-11-14T08:43:48.565Z,11.80
2018-11-14T08:44:48.543Z,11.72
2018-11-14T08:45:48.527Z,11.56
2018-11-14T08:46:48.511Z,11.19
2018-11-14T08:47:48.479Z,11.28
2018-11-14T08:48:48.460Z,11.56
2018-11-14T08:49:48.448Z,11.83
2018-11-14T08:50:48.421Z,12.05
2018-11-14T08:51:48.400Z,12.30
2018-11-14T08:52:48.387Z,12.52
2018-11-14T08:53:48.365Z,12.52
2018-11-14T08:54:48.345Z,12.51
2018-11-14T08:55:48.315Z,12.81
2018-11-14T08:56:48.309Z,13.04
2018-11-14T08:57:48.289Z,13.18
2018-11-14T08:58:48.259Z,13.02
2018-11-14T08:59:48.244Z,12.71
2018-11-14T09:00:48.233Z,12.31
2018-11-14T09:01:48.198Z,12.19
2018-11-14T09:02:48.188Z,12.34
2018-11-14T09:03:48.165Z,12.60
2018-11-14T09:04:48.149Z,12.78
2018-11-14T09:05:48.117Z,12.74
2018-11-14T09:06:48.105Z,12.45
2018-11-14T09:07:49.118Z,11.94
2018-11-14T09:08:48.059Z,11.62
2018-11-14T09:09:48.040Z,11.67
2018-11-14T09:10:48.609Z,11.70
2018-11-14T09:11:48.042Z,11.54
2018-11-14T09:12:48.010Z,11.68
2018-11-14T09:13:47.969Z,12.11
2018-11-14T09:14:47.982Z,12.44
2018-11-14T09:15:47.927Z,12.70
2018-11-14T09:16:47.903Z,12.67
2018-11-14T09:17:47.886Z,12.52
2018-11-14T09:18:47.917Z,12.27
2018-11-14T09:19:47.845Z,12.16
2018-11-14T09:20:47.828Z,12.29
2018-11-14T09:21:47.817Z,12.39
2018-11-14T09:22:47.788Z,12.56
2018-11-14T09:23:47.826Z,12.74
2018-11-14T09:24:47.813Z,12.79
2018-11-14T09:25:47.736Z,12.70
2018-11-14T09:26:47.716Z,12.49
2018-11-14T09:27:47.697Z,12.64
2018-11-14T09:28:47.678Z,12.93
2018-11-14T09:29:47.653Z,13.21
2018-11-14T09:30:47.636Z,13.09
2018-11-14T09:31:47.618Z,13.14
2018-11-14T09:32:47.657Z,13.44
2018-11-14T09:33:47.575Z,13.56
2018-11-14T09:34:47.573Z,13.69
2018-11-14T09:35:47.540Z,14.02
2018-11-14T09:36:47.527Z,14.28
2018-11-14T09:37:47.508Z,14.71
2018-11-14T09:38:47.490Z,15.03
2018-11-14T09:39:47.462Z,15.13
2018-11-14T09:40:47.453Z,15.52
2018-11-14T09:41:47.433Z,15.59
2018-11-14T09:42:47.407Z,15.67
2018-11-14T09:43:47.418Z,15.28
2018-11-14T09:44:47.379Z,15.30
2018-11-14T09:45:47.350Z,15.72
2018-11-14T09:46:47.334Z,15.89
2018-11-14T09:47:47.315Z,15.84
2018-11-14T09:48:47.303Z,15.92
2018-11-14T09:49:47.280Z,15.57
2018-11-14T09:50:47.264Z,15.26
2018-11-14T09:51:47.245Z,15.36
2018-11-14T09:52:47.226Z,15.46
2018-11-14T09:53:47.209Z,15.57
2018-11-14T09:54:47.194Z,15.45
2018-11-14T09:55:47.175Z,15.17
2018-11-14T09:56:47.195Z,14.91
2018-11-14T09:57:47.146Z,15.13
2018-11-14T09:58:48.103Z,15.23
2018-11-14T09:59:47.113Z,15.09
2018-11-14T10:00:47.171Z,14.93
2018-11-14T10:01:47.075Z,14.90
2018-11-14T10:02:47.113Z,15.28
2018-11-14T10:03:47.034Z,15.51
2018-11-14T10:04:47.018Z,15.27
2018-11-14T10:05:47.051Z,15.11
2018-11-14T10:06:46.989Z,15.38
2018-11-14T10:07:46.970Z,15.45
2018-11-14T10:08:46.960Z,15.08
2018-11-14T10:09:46.943Z,15.08
2018-11-14T10:10:46.930Z,14.94
2018-11-14T10:11:46.900Z,14.88
2018-11-14T10:12:46.929Z,15.24
2018-11-14T10:13:46.868Z,15.66
2018-11-14T10:14:46.852Z,15.64
2018-11-14T10:15:46.896Z,15.11
2018-11-14T10:16:46.827Z,14.95
2018-11-14T10:17:46.804Z,14.99
2018-11-14T10:18:46.788Z,15.24
2018-11-14T10:19:46.775Z,15.39
2018-11-14T10:20:46.763Z,15.51
2018-11-14T10:21:46.747Z,15.12
2018-11-14T10:22:46.727Z,15.03
2018-11-14T10:23:46.712Z,14.98
2018-11-14T10:24:46.693Z,15.17
2018-11-14T10:25:46.687Z,14.88
2018-11-14T10:26:46.667Z,14.86
2018-11-14T10:27:46.664Z,14.87
2018-11-14T10:28:46.632Z,14.98
2018-11-14T10:29:46.619Z,14.74
2018-11-14T10:30:46.613Z,14.60
2018-11-14T10:31:46.688Z,14.67
2018-11-14T10:32:46.575Z,14.44
2018-11-14T10:33:46.559Z,14.28
2018-11-14T10:34:46.546Z,14.72
2018-11-14T10:35:46.530Z,14.75
2018-11-14T10:36:46.515Z,14.68
2018-11-14T10:37:46.499Z,14.71
2018-11-14T10:38:46.486Z,14.80
2018-11-14T10:39:46.470Z,14.78
2018-11-14T10:40:46.448Z,14.86
2018-11-14T10:41:46.441Z,15.03
2018-11-14T10:42:46.481Z,14.90
2018-11-14T10:43:46.406Z,14.31
2018-11-14T10:44:46.396Z,14.09
2018-11-14T10:45:46.378Z,14.17
2018-11-14T10:46:46.361Z,14.04
2018-11-14T10:47:46.345Z,13.80
2018-11-14T10:48:46.333Z,13.99
2018-11-14T10:49:46.322Z,13.81
2018-11-14T10:50:46.308Z,13.91
2018-11-14T10:51:46.293Z,13.96
2018-11-14T10:52:46.274Z,14.19
2018-11-14T10:53:46.258Z,14.13
2018-11-14T10:54:46.242Z,14.09
2018-11-14T10:55:46.231Z,14.12
2018-11-14T10:56:46.213Z,14.10
2018-11-14T10:57:46.203Z,14.35
2018-11-14T10:58:46.192Z,14.52
2018-11-14T10:59:46.168Z,14.09
2018-11-14T11:00:46.159Z,13.92
2018-11-14T11:01:46.146Z,13.84
2018-11-14T11:02:46.136Z,13.99
2018-11-14T11:03:46.112Z,14.14
2018-11-14T11:04:46.102Z,14.19
2018-11-14T11:05:46.089Z,14.01
2018-11-14T11:06:46.070Z,14.10
2018-11-14T11:07:46.093Z,14.06
2018-11-14T11:08:46.119Z,14.24
2018-11-14T11:09:46.025Z,14.28
2018-11-14T11:10:46.016Z,14.42
2018-11-14T11:11:45.994Z,14.62
2018-11-14T11:12:45.987Z,14.17
2018-11-14T11:13:46.030Z,14.14
2018-11-14T11:14:45.955Z,14.07
2018-11-14T11:15:45.944Z,14.09
2018-11-14T11:16:45.926Z,13.87
2018-11-14T11:17:45.922Z,13.87
2018-11-14T11:18:45.899Z,13.95
2018-11-14T11:19:45.890Z,14.12
2018-11-14T11:20:45.888Z,14.56
2018-11-14T11:21:45.862Z,14.54
2018-11-14T11:22:45.852Z,14.44
2018-11-14T11:23:45.836Z,14.27
2018-11-14T11:24:45.823Z,14.19
2018-11-14T11:25:45.810Z,13.99
2018-11-14T11:26:45.791Z,14.02
2018-11-14T11:27:45.778Z,14.44
2018-11-14T11:28:45.769Z,14.39
2018-11-14T11:29:45.753Z,14.42
2018-11-14T11:30:45.775Z,14.14
2018-11-14T11:31:45.741Z,13.80
2018-11-14T11:32:45.711Z,13.84
2018-11-14T11:33:45.697Z,13.94
2018-11-14T11:34:45.685Z,13.94
2018-11-14T11:35:45.675Z,13.91
2018-11-14T11:36:45.659Z,13.96
2018-11-14T11:37:45.652Z,13.99
2018-11-14T11:38:45.634Z,13.98
2018-11-14T11:39:45.620Z,14.01
2018-11-14T11:40:45.626Z,14.01
2018-11-14T11:41:45.595Z,14.19
2018-11-14T11:42:45.586Z,13.99
2018-11-14T11:43:45.566Z,13.96
2018-11-14T11:44:45.560Z,13.95
2018-11-14T11:45:45.544Z,13.80
2018-11-14T11:46:45.528Z,13.92
2018-11-14T11:47:45.521Z,14.02
2018-11-14T11:48:45.503Z,14.04
2018-11-14T11:49:45.496Z,13.98
2018-11-14T11:50:45.486Z,13.52
2018-11-14T11:51:45.470Z,13.47
2018-11-14T11:52:45.457Z,13.15
2018-11-14T11:53:45.445Z,13.06
2018-11-14T11:54:45.426Z,12.77
2018-11-14T11:55:45.413Z,12.71
2018-11-14T11:56:45.400Z,12.92
2018-11-14T11:57:45.394Z,13.04
2018-11-14T11:58:45.374Z,13.33
2018-11-14T11:59:45.397Z,13.43
2018-11-14T12:00:45.369Z,13.46
2018-11-14T12:01:45.336Z,13.52
2018-11-14T12:02:45.327Z,13.56
2018-11-14T12:03:45.307Z,13.62
2018-11-14T12:04:45.303Z,13.51
2018-11-14T12:05:45.308Z,13.51
2018-11-14T12:06:45.271Z,13.47
2018-11-14T12:07:45.258Z,13.49
2018-11-14T12:08:45.241Z,13.54
2018-11-14T12:09:45.228Z,13.65
2018-11-14T12:10:45.263Z,13.56
2018-11-14T12:11:45.204Z,13.67
2018-11-14T12:12:45.233Z,13.62
2018-11-14T12:13:45.254Z,13.54
2018-11-14T12:14:45.163Z,13.30
2018-11-14T12:15:45.147Z,13.03
2018-11-14T12:16:45.143Z,12.84
2018-11-14T12:17:45.141Z,12.77
2018-11-14T12:18:45.113Z,12.82
2018-11-14T12:19:45.096Z,12.92
2018-11-14T12:20:45.082Z,12.89
2018-11-14T12:21:45.075Z,12.84
2018-11-14T12:22:45.065Z,12.63
2018-11-14T12:23:45.089Z,12.49
2018-11-14T12:24:45.030Z,12.46
2018-11-14T12:25:45.021Z,12.24
2018-11-14T12:26:45.006Z,12.09
2018-11-14T12:27:45.010Z,11.82
2018-11-14T12:28:44.989Z,11.70
2018-11-14T12:29:44.968Z,11.59
2018-11-14T12:30:45.049Z,11.54
2018-11-14T12:31:44.941Z,11.50
2018-11-14T12:32:44.926Z,11.49
2018-11-14T12:33:44.906Z,11.35
2018-11-14T12:34:44.930Z,11.38
2018-11-14T12:35:45.026Z,11.21
2018-11-14T12:36:44.871Z,11.10
2018-11-14T12:37:44.855Z,11.07
2018-11-14T12:38:44.881Z,11.03
2018-11-14T12:39:44.826Z,11.24
2018-11-14T12:40:44.807Z,11.35
2018-11-14T12:41:44.807Z,11.49
2018-11-14T12:42:44.785Z,11.61
2018-11-14T12:43:44.756Z,11.68
2018-11-14T12:44:44.739Z,11.71
2018-11-14T12:45:44.724Z,11.78
2018-11-14T12:46:44.711Z,11.57
2018-11-14T12:47:44.695Z,11.29
2018-11-14T12:48:44.680Z,11.13
2018-11-14T12:49:44.666Z,11.10
2018-11-14T12:50:44.651Z,11.11
2018-11-14T12:51:44.632Z,11.19
2018-11-14T12:52:44.678Z,11.31
2018-11-14T12:53:44.592Z,11.44
2018-11-14T12:54:44.583Z,11.54
2018-11-14T12:55:44.561Z,11.70
2018-11-14T12:56:44.542Z,11.65
2018-11-14T12:57:44.526Z,11.90
2018-11-14T12:58:44.507Z,11.93
2018-11-14T12:59:44.518Z,11.87
2018-11-14T13:00:44.474Z,12.09
2018-11-14T13:01:44.459Z,12.23
2018-11-14T13:02:44.445Z,12.41
2018-11-14T13:03:44.440Z,12.52
2018-11-14T13:04:44.413Z,12.75
2018-11-14T13:05:44.392Z,12.67
2018-11-14T13:06:44.374Z,12.79
2018-11-14T13:07:44.360Z,12.88
2018-11-14T13:08:44.347Z,13.04